createdAt,value
2023-09-15T00:00:27.111Z,11.42
2023-09-15T00:02:56.692Z,11.54
2023-09-15T00:05:25.069Z,11.27
2023-09-15T00:07:52.401Z,10.77
2023-09-15T00:10:22.752Z,10.99
2023-09-15T00:12:49.961Z,10.52
2023-09-15T00:15:16.963Z,10.57
2023-09-15T00:17:45.188Z,10.61
2023-09-15T00:20:15.128Z,10.90
2023-09-15T00:22:50.529Z,10.41
2023-09-15T00:25:20.675Z,10.53
2023-09-15T00:27:49.339Z,10.57
2023-09-15T00:30:17.703Z,10.68
2023-09-15T00:32:46.809Z,10.61
2023-09-15T00:35:15.566Z,10.60
2023-09-15T00:37:44.957Z,10.39
2023-09-15T00:40:11.982Z,10.31
2023-09-15T00:42:38.962Z,10.85
2023-09-15T00:45:07.152Z,10.46
2023-09-15T00:47:37.372Z,10.36
2023-09-15T00:50:04.426Z,10.50
2023-09-15T00:52:34.337Z,10.52
2023-09-15T00:55:02.056Z,10.38
2023-09-15T00:57:28.880Z,10.61
2023-09-15T00:59:55.554Z,10.24
2023-09-15T01:02:22.331Z,10.17
2023-09-15T01:04:49.771Z,10.49
2023-09-15T01:07:16.425Z,10.16
2023-09-15T01:09:43.367Z,9.98
2023-09-15T01:12:09.994Z,10.41
2023-09-15T01:14:36.963Z,10.02
2023-09-15T01:17:36.961Z,9.94
2023-09-15T01:20:29.570Z,10.31
2023-09-15T01:23:20.969Z,10.10
2023-09-15T01:25:53.426Z,10.76
2023-09-15T01:28:26.197Z,10.00
2023-09-15T01:30:53.253Z,10.35
2023-09-15T01:33:21.198Z,10.67
2023-09-15T01:35:49.183Z,10.61
2023-09-15T01:38:16.715Z,10.71
2023-09-15T01:40:43.357Z,10.29
2023-09-15T01:43:10.979Z,10.08
2023-09-15T01:45:37.742Z,9.86
2023-09-15T01:48:06.002Z,9.97
2023-09-15T01:50:33.603Z,10.44
2023-09-15T01:53:00.746Z,10.25
2023-09-15T01:55:28.214Z,9.88
2023-09-15T01:57:54.876Z,10.56
2023-09-15T02:00:21.874Z,10.50
2023-09-15T02:02:52.550Z,10.51
2023-09-15T02:05:24.731Z,10.08
2023-09-15T02:07:52.035Z,10.42
2023-09-15T02:10:18.830Z,9.57
2023-09-15T02:12:45.543Z,9.34
2023-09-15T02:15:12.913Z,9.74
2023-09-15T02:17:39.729Z,10.09
2023-09-15T02:20:12.946Z,10.19
2023-09-15T02:22:43.380Z,9.85
2023-09-15T02:25:12.987Z,9.34
2023-09-15T02:27:39.758Z,9.70
2023-09-15T02:30:06.942Z,9.82
2023-09-15T02:32:33.726Z,9.84
2023-09-15T02:35:00.296Z,10.02
2023-09-15T02:37:26.935Z,10.32
2023-09-15T02:39:54.594Z,10.25
2023-09-15T02:42:21.128Z,10.11
2023-09-15T02:44:47.764Z,9.67
2023-09-15T02:47:14.442Z,9.84
2023-09-15T02:49:41.404Z,9.45
2023-09-15T02:52:08.190Z,9.71
2023-09-15T02:54:34.930Z,10.12
2023-09-15T02:57:01.555Z,10.02
2023-09-15T02:59:28.465Z,9.85
2023-09-15T03:01:55.490Z,10.25
2023-09-15T03:04:23.194Z,10.04
2023-09-15T03:06:49.941Z,9.84
2023-09-15T03:09:17.153Z,9.96
2023-09-15T03:11:45.477Z,10.18
2023-09-15T03:14:13.328Z,10.14
2023-09-15T03:16:43.410Z,9.67
2023-09-15T03:19:10.628Z,9.69
2023-09-15T03:21:37.463Z,9.37
2023-09-15T03:24:05.742Z,9.48
2023-09-15T03:26:32.581Z,9.83
2023-09-15T03:28:59.602Z,9.53
2023-09-15T03:31:26.580Z,9.16
2023-09-15T03:33:53.621Z,9.82
2023-09-15T03:36:20.339Z,9.61
2023-09-15T03:38:47.140Z,9.80
2023-09-15T03:41:14.327Z,9.39
2023-09-15T03:43:42.145Z,9.98
2023-09-15T03:46:10.172Z,9.64
2023-09-15T03:48:37.172Z,9.91
2023-09-15T03:51:03.715Z,9.62
2023-09-15T03:53:30.377Z,9.53
2023-09-15T03:55:57.000Z,9.53
2023-09-15T03:58:24.022Z,9.54
2023-09-15T04:00:50.614Z,9.83
2023-09-15T04:03:27.827Z,9.96
2023-09-15T04:05:54.540Z,9.79
2023-09-15T04:08:21.069Z,9.71
2023-09-15T04:10:47.772Z,9.67
2023-09-15T04:13:14.467Z,9.70
2023-09-15T04:15:41.100Z,10.02
2023-09-15T04:18:09.398Z,9.60
2023-09-15T04:20:46.100Z,9.47
2023-09-15T04:23:15.076Z,8.84
2023-09-15T04:25:43.645Z,9.66
2023-09-15T04:28:10.392Z,9.60
2023-09-15T04:30:37.525Z,9.58
2023-09-15T04:33:04.607Z,9.57
2023-09-15T04:35:31.421Z,8.89
2023-09-15T04:37:58.886Z,9.42
2023-09-15T04:40:26.062Z,9.10
2023-09-15T04:42:53.083Z,8.60
2023-09-15T04:45:19.887Z,8.61
2023-09-15T04:47:47.153Z,9.45
2023-09-15T04:50:20.249Z,9.49
2023-09-15T04:52:48.456Z,9.42
2023-09-15T04:55:16.229Z,9.36
2023-09-15T04:57:43.031Z,9.52
2023-09-15T05:00:14.263Z,9.68
2023-09-15T05:02:58.065Z,9.54
2023-09-15T05:05:26.645Z,10.10
2023-09-15T05:07:53.208Z,9.23
2023-09-15T05:10:20.150Z,9.61
2023-09-15T05:12:46.688Z,10.07
2023-09-15T05:15:13.510Z,9.76
2023-09-15T05:17:41.487Z,9.38
2023-09-15T05:20:08.765Z,9.88
2023-09-15T05:22:35.386Z,9.75
2023-09-15T05:25:05.953Z,9.76
2023-09-15T05:27:33.207Z,10.03
2023-09-15T05:29:59.798Z,9.91
2023-09-15T05:32:26.606Z,10.20
2023-09-15T05:34:53.246Z,10.23
2023-09-15T05:37:20.127Z,10.20
2023-09-15T05:39:46.820Z,9.79
2023-09-15T05:42:13.784Z,9.98
2023-09-15T05:44:40.369Z,10.06
2023-09-15T05:47:07.055Z,9.85
2023-09-15T05:49:33.633Z,9.93
2023-09-15T05:52:00.419Z,9.69
2023-09-15T05:54:27.686Z,10.34
2023-09-15T05:56:54.682Z,10.54
2023-09-15T05:59:21.324Z,10.52
2023-09-15T06:01:48.941Z,10.77
2023-09-15T06:04:16.666Z,10.52
2023-09-15T06:06:43.408Z,10.64
2023-09-15T06:09:10.263Z,10.63
2023-09-15T06:11:37.106Z,10.86
2023-09-15T06:14:03.882Z,10.77
2023-09-15T06:16:30.707Z,11.23
2023-09-15T06:18:57.468Z,11.38
2023-09-15T06:21:24.061Z,11.49
2023-09-15T06:23:50.774Z,11.58
2023-09-15T06:26:17.426Z,11.58
2023-09-15T06:28:44.092Z,11.53
2023-09-15T06:31:10.846Z,11.72
2023-09-15T06:33:37.564Z,11.59
2023-09-15T06:36:05.245Z,11.83
2023-09-15T06:38:35.091Z,11.68
2023-09-15T06:41:02.807Z,12.11
2023-09-15T06:43:29.682Z,12.33
2023-09-15T06:45:56.438Z,12.41
2023-09-15T06:48:23.176Z,12.54
2023-09-15T06:50:49.676Z,12.65
2023-09-15T06:53:16.314Z,12.44
2023-09-15T06:55:42.993Z,12.49
2023-09-15T06:58:12.218Z,12.89
2023-09-15T07:00:39.164Z,13.03
2023-09-15T07:03:13.355Z,13.28
2023-09-15T07:05:40.544Z,13.41
2023-09-15T07:08:07.176Z,13.47
2023-09-15T07:10:34.203Z,13.77
2023-09-15T07:13:01.305Z,13.98
2023-09-15T07:15:30.141Z,14.11
2023-09-15T07:17:56.810Z,14.11
2023-09-15T07:20:23.494Z,14.13
2023-09-15T07:22:50.243Z,14.47
2023-09-15T07:25:16.994Z,14.46
2023-09-15T07:27:45.334Z,14.66
2023-09-15T07:30:13.567Z,14.82
2023-09-15T07:32:41.041Z,14.92
2023-09-15T07:35:07.933Z,15.03
2023-09-15T07:37:34.861Z,15.23
2023-09-15T07:40:01.548Z,15.34
2023-09-15T07:42:28.160Z,15.55
2023-09-15T07:44:54.769Z,15.63
2023-09-15T07:47:21.557Z,15.71
2023-09-15T07:49:48.338Z,15.86
2023-09-15T07:52:17.081Z,15.99
2023-09-15T07:54:47.108Z,16.03
2023-09-15T07:57:13.733Z,16.10
2023-09-15T07:59:40.705Z,16.23
2023-09-15T08:02:07.629Z,16.39
2023-09-15T08:04:34.421Z,16.54
2023-09-15T08:07:01.464Z,16.71
2023-09-15T08:09:28.091Z,16.86
2023-09-15T08:11:55.681Z,16.83
2023-09-15T08:14:22.322Z,16.79
2023-09-15T08:16:49.259Z,17.08
2023-09-15T08:19:16.007Z,17.20
2023-09-15T08:21:42.639Z,17.59
2023-09-15T08:24:09.394Z,17.83
2023-09-15T08:26:44.098Z,17.99
2023-09-15T08:29:12.945Z,18.27
2023-09-15T08:31:41.141Z,18.31
2023-09-15T08:34:08.597Z,18.48
2023-09-15T08:36:35.427Z,18.61
2023-09-15T08:39:03.453Z,18.74
2023-09-15T08:41:40.631Z,18.81
2023-09-15T08:44:17.266Z,18.87
2023-09-15T08:46:44.644Z,19.13
2023-09-15T08:49:12.168Z,19.10
2023-09-15T08:51:40.297Z,19.27
2023-09-15T08:54:07.558Z,19.24
2023-09-15T08:56:34.751Z,19.57
2023-09-15T08:59:02.360Z,19.55
2023-09-15T09:01:29.227Z,19.79
2023-09-15T09:03:56.153Z,19.74
2023-09-15T09:06:24.607Z,19.99
2023-09-15T09:08:51.670Z,20.03
2023-09-15T09:11:18.439Z,20.14
2023-09-15T09:13:52.083Z,19.99
2023-09-15T09:16:21.272Z,20.37
2023-09-15T09:19:02.425Z,20.66
2023-09-15T09:21:31.629Z,20.68
2023-09-15T09:23:58.982Z,20.76
2023-09-15T09:26:26.031Z,20.70
2023-09-15T09:28:58.197Z,20.58
2023-09-15T09:31:26.891Z,20.59
2023-09-15T09:33:55.085Z,20.80
2023-09-15T09:36:22.076Z,21.29
2023-09-15T09:38:51.002Z,21.36
2023-09-15T09:41:19.933Z,21.04
2023-09-15T09:43:50.607Z,20.98
2023-09-15T09:46:20.867Z,21.35
2023-09-15T09:48:49.685Z,21.40
2023-09-15T09:51:18.378Z,21.31
2023-09-15T09:53:45.170Z,21.20
2023-09-15T09:56:12.042Z,20.40
2023-09-15T09:58:41.645Z,20.45
2023-09-15T10:01:08.300Z,21.18
2023-09-15T10:03:35.261Z,21.14
2023-09-15T10:06:02.638Z,21.03
2023-09-15T10:08:31.601Z,20.94
2023-09-15T10:10:59.151Z,20.32
2023-09-15T10:13:27.228Z,20.45
2023-09-15T10:15:56.251Z,21.22
2023-09-15T10:18:24.136Z,21.35
2023-09-15T10:20:54.065Z,21.64
2023-09-15T10:23:20.789Z,21.83
2023-09-15T10:25:53.007Z,21.78
2023-09-15T10:28:39.375Z,21.49
2023-09-15T10:31:09.004Z,21.34
2023-09-15T10:33:39.313Z,21.47
2023-09-15T10:36:06.107Z,20.94
2023-09-15T10:38:36.610Z,20.77
2023-09-15T10:41:06.874Z,21.43
2023-09-15T10:43:34.193Z,21.67
2023-09-15T10:46:07.285Z,21.26
2023-09-15T10:48:52.921Z,21.41
2023-09-15T10:51:20.718Z,21.29
2023-09-15T10:53:50.452Z,21.20
2023-09-15T10:56:19.127Z,21.59
2023-09-15T10:58:49.051Z,21.79
2023-09-15T11:01:17.847Z,21.77
2023-09-15T11:03:45.516Z,21.31
2023-09-15T11:06:14.216Z,21.48
2023-09-15T11:08:41.215Z,20.92
2023-09-15T11:11:11.851Z,21.22
2023-09-15T11:13:40.358Z,21.34
2023-09-15T11:16:08.588Z,21.35
2023-09-15T11:18:36.380Z,21.53
2023-09-15T11:21:03.336Z,21.36
2023-09-15T11:23:30.590Z,21.17
2023-09-15T11:26:17.024Z,20.85
2023-09-15T11:28:48.831Z,21.29
2023-09-15T11:31:15.764Z,21.22
2023-09-15T11:33:43.858Z,21.90
2023-09-15T11:36:11.296Z,22.09
2023-09-15T11:38:38.610Z,21.31
2023-09-15T11:41:06.366Z,20.86
2023-09-15T11:43:33.802Z,21.42
2023-09-15T11:46:01.610Z,21.79
2023-09-15T11:48:29.429Z,22.72
2023-09-15T11:50:59.200Z,22.80
2023-09-15T11:53:26.842Z,22.65
2023-09-15T11:55:53.552Z,22.33
2023-09-15T11:58:20.442Z,22.05
2023-09-15T12:00:47.421Z,22.67
2023-09-15T12:03:15.404Z,22.18
2023-09-15T12:05:43.017Z,21.59
2023-09-15T12:08:12.230Z,22.01
2023-09-15T12:10:39.078Z,22.03
2023-09-15T12:13:07.070Z,21.80
2023-09-15T12:15:34.971Z,22.08
2023-09-15T12:18:06.316Z,22.33
2023-09-15T12:20:36.992Z,22.17
2023-09-15T12:23:13.044Z,22.56
2023-09-15T12:25:39.710Z,22.40
2023-09-15T12:28:07.402Z,22.26
2023-09-15T12:30:36.151Z,22.24
2023-09-15T12:33:06.071Z,22.21
2023-09-15T12:35:40.364Z,22.22
2023-09-15T12:38:07.068Z,22.13
2023-09-15T12:40:35.450Z,22.25
2023-09-15T12:43:02.245Z,22.24
2023-09-15T12:45:28.990Z,21.97
2023-09-15T12:47:55.670Z,22.26
2023-09-15T12:50:22.395Z,22.40
2023-09-15T12:52:49.011Z,22.08
2023-09-15T12:55:17.234Z,22.27
2023-09-15T12:57:43.892Z,21.88
2023-09-15T13:00:11.375Z,21.80
2023-09-15T13:02:38.961Z,21.83
2023-09-15T13:05:06.345Z,22.07
2023-09-15T13:07:33.400Z,22.29
2023-09-15T13:10:00.038Z,22.32
2023-09-15T13:12:26.736Z,22.17
2023-09-15T13:14:53.655Z,22.09
2023-09-15T13:17:21.241Z,21.98
2023-09-15T13:19:47.892Z,21.73
2023-09-15T13:22:15.362Z,21.75
2023-09-15T13:24:42.074Z,21.77
2023-09-15T13:27:08.952Z,21.94
2023-09-15T13:29:35.636Z,21.96
2023-09-15T13:32:02.278Z,22.06
2023-09-15T13:34:29.258Z,22.22
2023-09-15T13:36:56.036Z,22.29
2023-09-15T13:39:23.322Z,22.25
2023-09-15T13:41:50.442Z,22.13
2023-09-15T13:44:17.409Z,22.33
2023-09-15T13:46:44.183Z,22.40
2023-09-15T13:49:12.246Z,22.25
2023-09-15T13:51:42.798Z,22.28
2023-09-15T13:54:10.441Z,22.12
2023-09-15T13:56:37.177Z,22.28
2023-09-15T13:59:12.783Z,22.32
2023-09-15T14:01:41.317Z,22.39
2023-09-15T14:04:09.286Z,22.70
2023-09-15T14:06:36.511Z,22.58
2023-09-15T14:09:03.374Z,22.18
2023-09-15T14:11:29.978Z,22.13
2023-09-15T14:13:56.602Z,22.32
2023-09-15T14:16:23.400Z,22.42
2023-09-15T14:18:50.421Z,22.37
2023-09-15T14:21:17.668Z,22.34
2023-09-15T14:23:44.341Z,22.46
2023-09-15T14:26:11.453Z,22.67
2023-09-15T14:28:38.079Z,22.64
2023-09-15T14:31:04.876Z,22.33
2023-09-15T14:33:31.762Z,22.33
2023-09-15T14:35:58.745Z,22.39
2023-09-15T14:38:25.567Z,22.54
2023-09-15T14:40:52.186Z,22.52
2023-09-15T14:43:18.801Z,22.36
2023-09-15T14:45:45.550Z,22.46
2023-09-15T14:48:12.299Z,22.39
2023-09-15T14:50:39.277Z,22.47
2023-09-15T14:53:05.899Z,22.44
2023-09-15T14:55:32.518Z,22.27
2023-09-15T14:57:59.173Z,22.39
2023-09-15T15:00:25.938Z,22.25
2023-09-15T15:02:52.650Z,21.99
2023-09-15T15:05:19.515Z,22.14
2023-09-15T15:07:46.380Z,22.22
2023-09-15T15:10:12.976Z,22.42
2023-09-15T15:12:40.179Z,22.42
2023-09-15T15:15:07.504Z,22.40
2023-09-15T15:17:34.702Z,22.26
2023-09-15T15:20:01.421Z,22.04
2023-09-15T15:22:28.093Z,21.91
2023-09-15T15:24:54.862Z,21.92
2023-09-15T15:27:21.746Z,21.91
2023-09-15T15:29:48.629Z,21.89
2023-09-15T15:32:15.986Z,21.91
2023-09-15T15:34:42.616Z,21.80
2023-09-15T15:37:09.332Z,21.76
2023-09-15T15:39:35.977Z,21.69
2023-09-15T15:42:02.680Z,21.77
2023-09-15T15:44:32.176Z,21.37
2023-09-15T15:46:58.953Z,21.43
2023-09-15T15:49:25.686Z,21.32
2023-09-15T15:51:52.463Z,21.27
2023-09-15T15:54:19.384Z,21.53
2023-09-15T15:56:46.604Z,21.27
2023-09-15T15:59:13.382Z,21.25
2023-09-15T16:01:40.077Z,21.40
2023-09-15T16:04:06.983Z,21.49
2023-09-15T16:06:33.887Z,21.56
2023-09-15T16:09:00.532Z,21.56
2023-09-15T16:11:28.201Z,21.43
2023-09-15T16:13:55.186Z,21.30
2023-09-15T16:16:21.993Z,21.27
2023-09-15T16:18:49.069Z,21.12
2023-09-15T16:21:16.153Z,20.99
2023-09-15T16:23:42.808Z,20.98
2023-09-15T16:26:10.009Z,20.87
2023-09-15T16:28:37.462Z,20.69
2023-09-15T16:31:04.674Z,20.60
2023-09-15T16:33:31.536Z,20.55
2023-09-15T16:36:03.231Z,20.59
2023-09-15T16:38:30.310Z,20.60
2023-09-15T16:41:03.898Z,20.58
2023-09-15T16:43:32.979Z,20.57
2023-09-15T16:46:00.255Z,20.52
2023-09-15T16:48:28.228Z,20.46
2023-09-15T16:50:55.129Z,20.47
2023-09-15T16:53:22.116Z,20.32
2023-09-15T16:55:50.944Z,20.19
2023-09-15T16:58:18.669Z,20.05
2023-09-15T17:00:46.161Z,19.99
2023-09-15T17:03:12.999Z,19.94
2023-09-15T17:05:40.349Z,19.86
2023-09-15T17:08:07.416Z,19.84
2023-09-15T17:10:35.696Z,19.89
2023-09-15T17:13:03.210Z,19.72
2023-09-15T17:15:30.827Z,19.68
2023-09-15T17:17:57.585Z,19.54
2023-09-15T17:20:24.309Z,19.52
2023-09-15T17:22:50.939Z,19.48
2023-09-15T17:25:18.175Z,19.40
2023-09-15T17:27:47.165Z,19.30
2023-09-15T17:30:15.456Z,19.14
2023-09-15T17:32:42.611Z,19.05
2023-09-15T17:35:10.205Z,19.02
2023-09-15T17:37:36.892Z,18.90
2023-09-15T17:40:06.262Z,18.67
2023-09-15T17:42:33.354Z,18.35
2023-09-15T17:45:00.346Z,18.01
2023-09-15T17:47:27.049Z,17.90
2023-09-15T17:50:06.644Z,17.59
2023-09-15T17:52:34.698Z,17.64
2023-09-15T17:55:01.442Z,17.61
2023-09-15T17:57:30.234Z,17.21
2023-09-15T17:59:57.506Z,16.86
2023-09-15T18:02:24.823Z,17.16
2023-09-15T18:04:52.304Z,16.91
2023-09-15T18:07:18.908Z,17.14
2023-09-15T18:09:46.234Z,17.16
2023-09-15T18:12:12.891Z,17.40
2023-09-15T18:14:39.513Z,17.34
2023-09-15T18:17:06.114Z,17.29
2023-09-15T18:19:32.757Z,17.24
2023-09-15T18:21:59.384Z,17.37
2023-09-15T18:24:26.057Z,17.27
2023-09-15T18:26:52.716Z,17.02
2023-09-15T18:29:19.557Z,17.03
2023-09-15T18:31:46.674Z,16.97
2023-09-15T18:34:13.714Z,17.18
2023-09-15T18:36:40.819Z,17.24
2023-09-15T18:39:07.527Z,17.09
2023-09-15T18:41:36.307Z,17.21
2023-09-15T18:44:04.192Z,17.39
2023-09-15T18:46:31.142Z,17.31
2023-09-15T18:48:59.942Z,17.49
2023-09-15T18:51:26.817Z,17.56
2023-09-15T18:53:53.447Z,17.61
2023-09-15T18:56:20.109Z,17.63
2023-09-15T18:58:47.020Z,17.70
2023-09-15T19:01:13.914Z,17.79
2023-09-15T19:03:40.893Z,17.79
2023-09-15T19:06:07.635Z,17.76
2023-09-15T19:08:34.319Z,17.67
2023-09-15T19:11:07.000Z,17.75
2023-09-15T19:13:34.191Z,17.78
2023-09-15T19:18:49.174Z,17.69
2023-09-15T19:21:16.957Z,17.66
2023-09-15T19:23:44.014Z,17.68
2023-09-15T19:26:10.669Z,17.70
2023-09-15T19:28:37.858Z,17.65
2023-09-15T19:31:04.580Z,17.65
2023-09-15T19:33:31.485Z,17.63
2023-09-15T19:35:58.192Z,17.76
2023-09-15T19:38:25.006Z,17.75
2023-09-15T19:40:52.274Z,17.76
2023-09-15T19:43:19.753Z,17.72
2023-09-15T19:45:50.787Z,17.68
2023-09-15T19:48:17.858Z,17.72
2023-09-15T19:50:46.586Z,17.70
2023-09-15T19:53:13.830Z,17.66
2023-09-15T19:55:43.077Z,17.66
2023-09-15T19:58:10.794Z,17.61
2023-09-15T20:00:38.147Z,17.61
2023-09-15T20:03:05.361Z,17.56
2023-09-15T20:05:33.732Z,17.55
2023-09-15T20:08:01.040Z,17.47
2023-09-15T20:10:28.935Z,17.57
2023-09-15T20:12:55.983Z,17.57
2023-09-15T20:15:22.981Z,17.61
2023-09-15T20:17:49.805Z,17.66
2023-09-15T20:20:17.982Z,17.62
2023-09-15T20:22:45.631Z,17.71
2023-09-15T20:25:12.794Z,17.69
2023-09-15T20:27:42.131Z,17.74
2023-09-15T20:30:10.055Z,17.78
2023-09-15T20:32:37.292Z,17.75
2023-09-15T20:35:05.826Z,17.89
2023-09-15T20:37:32.444Z,17.89
2023-09-15T20:39:59.177Z,17.81
2023-09-15T20:42:25.985Z,17.77
2023-09-15T20:44:52.765Z,17.94
2023-09-15T20:47:19.544Z,17.89
2023-09-15T20:49:46.418Z,17.91
2023-09-15T20:52:13.025Z,17.99
2023-09-15T20:54:40.168Z,18.04
2023-09-15T20:57:07.147Z,18.07
2023-09-15T20:59:33.809Z,18.07
2023-09-15T21:02:00.592Z,17.95
2023-09-15T21:04:28.622Z,18.13
2023-09-15T21:06:55.576Z,18.06
2023-09-15T21:09:22.385Z,18.16
2023-09-15T21:11:49.060Z,18.11
2023-09-15T21:14:15.791Z,18.12
2023-09-15T21:16:42.577Z,18.15
2023-09-15T21:19:11.940Z,18.13
2023-09-15T21:21:39.643Z,18.21
2023-09-15T21:24:06.440Z,18.20
2023-09-15T21:26:33.520Z,18.23
2023-09-15T21:29:00.242Z,18.14
2023-09-15T21:31:28.018Z,18.18
2023-09-15T21:33:54.865Z,18.23
2023-09-15T21:36:21.775Z,18.17
2023-09-15T21:38:49.541Z,18.17
2023-09-15T21:41:17.134Z,18.20
2023-09-15T21:43:43.765Z,18.12
2023-09-15T21:46:10.583Z,18.09
2023-09-15T21:48:39.151Z,18.06
2023-09-15T21:51:06.134Z,18.16
2023-09-15T21:53:34.262Z,18.06
2023-09-15T21:56:01.141Z,18.18
2023-09-15T21:58:27.873Z,18.13
2023-09-15T22:00:54.639Z,18.12
2023-09-15T22:03:29.084Z,18.16
2023-09-15T22:05:56.158Z,18.17
2023-09-15T22:08:22.834Z,18.15
2023-09-15T22:10:50.292Z,18.12
2023-09-15T22:13:21.377Z,18.21
2023-09-15T22:15:48.169Z,18.10
2023-09-15T22:18:14.944Z,18.19
2023-09-15T22:20:43.837Z,18.14
2023-09-15T22:23:12.381Z,18.22
2023-09-15T22:25:40.982Z,18.29
2023-09-15T22:28:07.904Z,18.25
2023-09-15T22:30:34.966Z,18.16
2023-09-15T22:33:03.734Z,18.13
2023-09-15T22:35:30.911Z,18.11
2023-09-15T22:38:01.511Z,18.14
2023-09-15T22:40:29.238Z,18.07
2023-09-15T22:42:56.627Z,18.00
2023-09-15T22:45:24.044Z,18.04
2023-09-15T22:47:58.840Z,18.02
2023-09-15T22:50:27.334Z,18.01
2023-09-15T22:52:54.304Z,18.00
2023-09-15T22:55:22.342Z,17.90
2023-09-15T22:57:49.377Z,17.87
2023-09-15T23:00:18.346Z,17.87
2023-09-15T23:02:50.807Z,17.83
2023-09-15T23:05:18.681Z,17.87
2023-09-15T23:07:46.695Z,17.86
2023-09-15T23:10:13.468Z,17.83
2023-09-15T23:12:40.704Z,17.72
2023-09-15T23:15:08.518Z,17.74
2023-09-15T23:17:35.301Z,17.72
2023-09-15T23:20:02.420Z,17.73
2023-09-15T23:22:29.143Z,17.74
2023-09-15T23:24:56.293Z,17.62
2023-09-15T23:27:23.370Z,17.69
2023-09-15T23:29:50.047Z,17.65
2023-09-15T23:32:16.741Z,17.69
2023-09-15T23:34:43.505Z,17.64
2023-09-15T23:37:10.266Z,17.47
2023-09-15T23:39:37.085Z,17.42
2023-09-15T23:42:04.322Z,17.46
2023-09-15T23:44:31.108Z,17.40
2023-09-15T23:46:57.944Z,17.32
2023-09-15T23:49:24.713Z,17.39
2023-09-15T23:51:52.228Z,17.31
2023-09-15T23:54:19.174Z,17.30
2023-09-15T23:56:46.156Z,17.29
2023-09-15T23:59:13.287Z,17.24
